Time;durP1;ratioP1;P1;durP2;ratioP2;P2;SDS_P1;SDS_P2;PMS_P1;PMS_P2;Temp;Humidity;BMP_temperature;BMP_pressure;BME280_temperature;BME280_humidity;BME280_pressure;Samples;Min_cycle;Max_cycle;Signal;HPM_P1;HPM_P2
2021/12/24 00:01:33;;;;;;;43.03;29.60;;;;;;;-0.59;80.78;98629.13;5067627;28;20276;-79
2021/12/24 00:04:09;;;;;;;42.50;29.97;;;;;;;-0.53;80.89;98614.47;5020826;28;20226;-79
2021/12/24 00:06:39;;;;;;;41.47;29.50;;;;;;;-0.57;80.87;98632.41;5022606;28;20313;-80
2021/12/24 00:09:07;;;;;;;38.93;28.87;;;;;;;-0.56;80.58;98615.59;5024193;28;20239;-79
2021/12/24 00:11:36;;;;;;;40.37;29.17;;;;;;;-0.53;80.94;98648.66;5023447;28;20211;-79
2021/12/24 00:14:05;;;;;;;40.90;29.70;;;;;;;-0.45;80.71;98641.53;5052521;23;20549;-80
2021/12/24 00:16:43;;;;;;;41.37;29.70;;;;;;;-0.55;80.32;98617.25;5070318;28;20264;-80
2021/12/24 00:19:35;;;;;;;37.23;27.90;;;;;;;-0.50;79.98;98606.19;5087285;28;20235;-81
2021/12/24 00:36:04;;;;;;;36.77;27.80;;;;;;;-0.37;80.12;98576.69;5086465;28;20228;-79
2021/12/24 00:38:38;;;;;;;38.13;28.43;;;;;;;-0.33;80.17;98580.63;5086174;28;20229;-80
2021/12/24 00:41:06;;;;;;;37.07;27.80;;;;;;;-0.22;79.77;98578.38;5087418;28;20715;-80
2021/12/24 00:43:33;;;;;;;39.27;28.87;;;;;;;-0.26;79.67;98579.72;5086695;28;20241;-80
2021/12/24 00:46:01;;;;;;;37.93;28.17;;;;;;;-0.28;79.90;98563.28;5086190;28;20224;-80
2021/12/24 00:48:27;;;;;;;40.83;28.97;;;;;;;-0.24;79.97;98564.59;5070132;28;20652;-80
2021/12/24 00:56:13;;;;;;;37.57;28.07;;;;;;;-0.42;81.09;98581.66;5076462;23;20670;-80
2021/12/24 00:58:43;;;;;;;37.97;28.87;;;;;;;-0.43;81.81;98566.88;5086245;28;20212;-80
2021/12/24 01:01:13;;;;;;;42.53;29.50;;;;;;;-0.39;81.75;98563.72;5086458;28;20224;-80
2021/12/24 01:03:43;;;;;;;36.53;28.43;;;;;;;-0.22;81.18;98564.38;5070302;28;20224;-80
2021/12/24 01:06:11;;;;;;;38.13;28.47;;;;;;;-0.33;81.34;98549.03;5092187;23;20347;-80
2021/12/24 01:08:39;;;;;;;39.90;27.70;;;;;;;-0.08;80.83;98548.63;5069370;28;20312;-80
2021/12/24 01:11:09;;;;;;;41.37;29.47;;;;;;;-0.16;80.73;98547.91;5087401;28;20228;-80
2021/12/24 01:13:36;;;;;;;42.43;30.00;;;;;;;-0.16;80.83;98540.00;5086342;28;20213;-81
2021/12/24 01:16:13;;;;;;;39.90;29.83;;;;;;;-0.12;80.25;98536.00;5098427;22;20262;-81
2021/12/24 01:19:02;;;;;;;39.93;29.60;;;;;;;-0.18;81.36;98529.63;5049060;28;20222;-80
2021/12/24 01:24:49;;;;;;;40.80;30.13;;;;;;;-0.03;80.55;98538.38;4993637;28;20234;-80
2021/12/24 01:38:15;;;;;;;36.03;28.20;;;;;;;0.01;80.71;98525.69;5002629;28;20237;-80
2021/12/24 01:43:39;;;;;;;37.30;27.17;;;;;;;-0.15;81.39;98494.25;5021262;28;20573;-80
2021/12/24 01:46:07;;;;;;;38.87;29.17;;;;;;;-0.06;81.54;98499.25;5074728;22;20253;-80
2021/12/24 01:48:35;;;;;;;37.77;28.10;;;;;;;-0.11;80.88;98509.50;5048521;28;20219;-80
2021/12/24 01:51:03;;;;;;;37.97;28.40;;;;;;;-0.12;81.10;98510.50;5049505;28;20255;-80
2021/12/24 01:53:44;;;;;;;38.33;28.60;;;;;;;0.02;81.70;98511.53;5067396;28;20280;-80
2021/12/24 01:56:11;;;;;;;38.93;29.43;;;;;;;0.08;81.11;98502.09;5064365;28;20300;-81
2021/12/24 01:58:38;;;;;;;37.87;28.83;;;;;;;-0.11;81.43;98517.41;5048827;28;20228;-80
2021/12/24 02:01:15;;;;;;;38.37;30.03;;;;;;;-0.02;81.20;98518.97;5063320;28;20663;-81
2021/12/24 02:03:45;;;;;;;37.97;30.30;;;;;;;0.03;81.49;98514.97;5068292;28;20213;-80
2021/12/24 02:06:12;;;;;;;39.80;30.40;;;;;;;0.04;81.61;98487.66;5064785;28;20279;-81
2021/12/24 02:08:42;;;;;;;41.10;30.17;;;;;;;0.13;81.50;98507.63;5086521;22;20634;-80
2021/12/24 02:11:12;;;;;;;40.23;29.33;;;;;;;0.09;82.07;98512.44;5045746;28;20210;-80
2021/12/24 02:13:39;;;;;;;40.73;29.50;;;;;;;0.16;81.69;98491.47;5030346;28;20260;-80
2021/12/24 02:30:03;;;;;;;39.93;29.03;;;;;;;0.25;82.63;98466.66;5063732;28;20229;-80
2021/12/24 02:32:30;;;;;;;39.70;28.97;;;;;;;0.18;82.90;98448.16;5056701;23;20217;-80
2021/12/24 02:34:58;;;;;;;37.80;29.03;;;;;;;0.23;82.77;98439.69;5088666;28;20228;-80
2021/12/24 02:37:26;;;;;;;37.90;27.73;;;;;;;0.34;83.49;98437.41;5087787;28;20266;-80
2021/12/24 02:39:58;;;;;;;37.67;28.53;;;;;;;0.49;83.41;98433.94;5087457;28;20225;-80
2021/12/24 02:42:27;;;;;;;31.00;22.40;;;;;;;0.76;84.46;98406.88;5070571;28;20263;-81
2021/12/24 02:44:54;;;;;;;19.63;15.23;;;;;;;1.70;87.15;98418.88;5071139;28;20312;-81
2021/12/24 02:55:13;;;;;;;15.20;11.27;;;;;;;3.86;88.69;98421.34;5090449;28;20224;-81
2021/12/24 02:57:41;;;;;;;15.40;11.37;;;;;;;4.10;88.67;98403.16;5090061;28;20220;-81
2021/12/24 03:00:19;;;;;;;10.47;7.67;;;;;;;4.56;87.81;98392.41;5087894;28;20216;-81
2021/12/24 03:02:48;;;;;;;9.57;7.40;;;;;;;4.94;86.75;98385.25;5089262;28;20212;-81
2021/12/24 03:05:27;;;;;;;6.53;5.40;;;;;;;5.32;86.45;98370.06;5093495;23;20564;-81
2021/12/24 03:07:54;;;;;;;7.07;5.50;;;;;;;5.54;85.39;98375.00;5071284;28;20243;-81
2021/12/24 03:10:26;;;;;;;5.73;4.13;;;;;;;6.10;84.47;98373.06;5086501;28;20288;-81
2021/12/24 03:12:54;;;;;;;5.93;3.90;;;;;;;6.35;83.01;98382.78;5089526;28;20232;-81
2021/12/24 03:15:34;;;;;;;4.20;3.80;;;;;;;6.47;82.52;98376.53;5080198;23;20709;-80
2021/12/24 03:18:01;;;;;;;5.00;3.90;;;;;;;6.60;81.25;98360.38;5072154;28;20212;-81
2021/12/24 03:20:34;;;;;;;12.37;10.80;;;;;;;6.68;77.98;98353.91;5056931;28;20217;-81
2021/12/24 03:25:34;;;;;;;23.43;20.30;;;;;;;5.68;70.43;98355.25;5088429;28;20193;-81
2021/12/24 03:28:05;;;;;;;24.83;20.83;;;;;;;5.30;68.05;98356.19;5088878;28;20251;-80
2021/12/24 03:30:36;;;;;;;24.80;21.13;;;;;;;4.93;69.08;98343.81;5088894;28;20233;-80
2021/12/24 03:33:05;;;;;;;23.03;20.30;;;;;;;4.51;69.74;98353.25;5088374;28;20247;-80
2021/12/24 03:35:32;;;;;;;24.80;21.00;;;;;;;4.24;69.95;98334.00;5077578;23;20315;-80
2021/12/24 03:38:02;;;;;;;27.43;21.63;;;;;;;3.99;70.38;98343.66;5090231;28;20225;-80
2021/12/24 03:40:29;;;;;;;25.00;21.87;;;;;;;3.89;70.33;98333.50;5072088;28;20303;-80
2021/12/24 03:43:06;;;;;;;26.50;21.57;;;;;;;3.67;71.01;98350.66;5093808;22;20227;-80
2021/12/24 03:45:55;;;;;;;26.40;22.17;;;;;;;3.52;71.13;98350.06;5073097;28;20217;-80
2021/12/24 03:48:44;;;;;;;27.10;21.83;;;;;;;3.39;71.72;98360.66;5091025;28;20281;-80
2021/12/24 03:51:36;;;;;;;27.23;22.37;;;;;;;3.23;72.29;98343.34;5103254;22;20308;-80
2021/12/24 03:56:50;;;;;;;24.87;21.37;;;;;;;2.91;74.03;98320.34;5058974;28;20196;-80
2021/12/24 03:59:39;;;;;;;25.77;21.77;;;;;;;2.86;75.28;98344.75;5078351;23;20229;-80
2021/12/24 04:02:39;;;;;;;26.70;21.17;;;;;;;2.74;75.77;98340.28;5061856;28;20221;-80
2021/12/24 04:05:35;;;;;;;24.73;20.03;;;;;;;2.73;76.26;98336.00;5096352;22;20224;-80
2021/12/24 04:08:16;;;;;;;25.90;21.43;;;;;;;2.70;76.79;98324.00;5113082;28;20585;-80
2021/12/24 04:11:08;;;;;;;25.83;20.93;;;;;;;2.78;77.11;98328.28;5103739;28;20227;-80
2021/12/24 04:13:38;;;;;;;26.00;20.77;;;;;;;2.75;77.04;98332.16;5100154;22;20213;-81
2021/12/24 04:16:06;;;;;;;24.67;20.80;;;;;;;2.74;77.57;98324.41;5077689;28;20232;-80
2021/12/24 04:26:56;;;;;;;27.00;21.13;;;;;;;2.72;78.53;98326.41;5080213;28;20352;-80
2021/12/24 04:29:28;;;;;;;32.43;23.63;;;;;;;2.92;78.03;98329.91;5112102;28;20303;-80
2021/12/24 04:32:14;;;;;;;31.90;23.73;;;;;;;2.93;78.72;98337.66;5176981;22;20291;-80
2021/12/24 04:35:17;;;;;;;28.37;23.07;;;;;;;2.97;78.24;98328.28;5106243;22;20638;-80
2021/12/24 04:52:08;;;;;;;28.73;23.17;;;;;;;3.09;78.64;98337.25;5096269;28;20358;-80
2021/12/24 05:03:05;;;;;;;28.17;22.30;;;;;;;3.16;78.67;98347.03;5114838;23;20292;-80
2021/12/24 05:05:48;;;;;;;26.67;21.03;;;;;;;3.10;77.93;98348.66;5077053;28;20228;-80
2021/12/24 05:08:28;;;;;;;28.00;22.53;;;;;;;3.12;77.96;98341.34;5100201;23;20265;-80
2021/12/24 05:10:57;;;;;;;31.70;24.07;;;;;;;3.16;77.75;98336.44;5095121;28;20239;-80
2021/12/24 05:13:26;;;;;;;29.50;24.13;;;;;;;3.31;77.83;98358.25;5109593;28;20220;-80
2021/12/24 05:16:28;;;;;;;28.30;22.60;;;;;;;3.12;77.74;98351.91;5099055;23;20223;-80
2021/12/24 05:22:08;;;;;;;27.47;22.67;;;;;;;3.08;77.75;98353.31;5105385;28;20258;-80
2021/12/24 05:24:38;;;;;;;33.20;25.83;;;;;;;3.05;78.82;98359.84;5105508;28;20251;-80
2021/12/24 05:27:05;;;;;;;37.97;27.67;;;;;;;3.02;79.17;98354.97;5089789;22;20540;-80
2021/12/24 05:29:33;;;;;;;28.77;23.23;;;;;;;2.95;79.79;98345.38;5055081;28;20231;-80
2021/12/24 05:32:04;;;;;;;33.27;24.43;;;;;;;2.80;80.08;98326.25;5105659;28;20260;-81
2021/12/24 05:34:38;;;;;;;36.67;28.13;;;;;;;2.92;80.01;98332.56;5088234;28;20646;-80
2021/12/24 05:37:06;;;;;;;37.00;28.10;;;;;;;2.92;80.55;98333.38;5105283;28;20218;-80
2021/12/24 05:39:34;;;;;;;35.00;27.80;;;;;;;3.03;80.93;98321.38;5105773;28;20258;-80
2021/12/24 05:42:07;;;;;;;30.10;25.43;;;;;;;3.12;80.50;98332.59;5070698;28;20281;-80
2021/12/24 05:44:34;;;;;;;31.03;24.37;;;;;;;3.09;80.88;98326.66;5087438;28;20215;-80
2021/12/24 05:47:06;;;;;;;32.60;26.53;;;;;;;3.10;81.68;98332.78;5086091;28;20279;-80
2021/12/24 05:49:44;;;;;;;30.23;24.80;;;;;;;3.06;81.71;98339.50;5054938;28;20228;-80
2021/12/24 05:52:50;;;;;;;28.13;23.47;;;;;;;3.06;82.11;98345.59;5044999;28;20234;-80
2021/12/24 05:55:33;;;;;;;28.83;21.83;;;;;;;3.05;81.62;98337.84;5030757;28;20238;-80
2021/12/24 05:58:10;;;;;;;27.30;22.07;;;;;;;3.17;82.01;98338.09;5077079;28;20212;-80
2021/12/24 06:00:43;;;;;;;26.57;22.57;;;;;;;3.10;81.90;98349.47;5090069;28;20228;-80
2021/12/24 06:03:11;;;;;;;27.93;22.80;;;;;;;3.05;82.20;98317.50;5089028;28;20250;-80
2021/12/24 06:05:40;;;;;;;28.53;23.23;;;;;;;3.02;81.91;98325.03;5090504;28;20188;-81
2021/12/24 06:08:08;;;;;;;28.17;23.70;;;;;;;3.07;81.92;98334.00;5087150;28;20215;-80
2021/12/24 06:10:37;;;;;;;27.87;22.80;;;;;;;3.06;82.12;98334.19;5087229;28;20227;-80
2021/12/24 06:13:08;;;;;;;27.87;23.67;;;;;;;3.01;81.54;98342.75;5074297;23;20237;-81
2021/12/24 06:15:42;;;;;;;30.63;24.50;;;;;;;3.01;81.34;98316.28;5047775;28;20245;-80
2021/12/24 06:20:52;;;;;;;27.37;22.43;;;;;;;3.33;81.99;98308.53;5066102;28;20233;-80
2021/12/24 06:23:21;;;;;;;28.60;22.87;;;;;;;3.20;80.69;98300.59;5066426;28;20226;-81
2021/12/24 06:25:53;;;;;;;27.73;22.10;;;;;;;3.29;80.93;98323.19;5047741;28;20181;-80
2021/12/24 06:28:20;;;;;;;26.03;22.23;;;;;;;3.38;80.53;98328.09;5065464;28;20636;-80
2021/12/24 06:30:47;;;;;;;26.47;21.63;;;;;;;3.31;79.70;98327.25;5071729;22;20247;-82
2021/12/24 06:33:29;;;;;;;29.80;22.87;;;;;;;3.21;79.99;98315.47;5049579;22;20230;-81
2021/12/24 06:35:57;;;;;;;28.60;23.00;;;;;;;3.19;79.88;98326.25;5045659;28;20579;-81
2021/12/24 06:38:27;;;;;;;29.60;23.47;;;;;;;3.26;79.66;98342.16;5027810;28;20232;-81
2021/12/24 06:40:57;;;;;;;26.77;22.10;;;;;;;3.19;78.87;98334.19;5044301;28;20260;-80
2021/12/24 06:43:24;;;;;;;28.77;23.77;;;;;;;3.15;79.04;98318.94;5044433;28;20222;-80
2021/12/24 06:45:57;;;;;;;37.33;26.90;;;;;;;3.19;79.16;98326.25;5043516;28;20295;-81
2021/12/24 06:48:24;;;;;;;31.83;25.23;;;;;;;3.21;78.75;98336.66;5045296;28;20237;-81
2021/12/24 06:50:52;;;;;;;29.63;24.13;;;;;;;3.27;79.06;98333.16;5045786;28;20260;-81
2021/12/24 06:53:18;;;;;;;34.23;28.97;;;;;;;3.40;78.27;98335.84;5029013;28;20508;-80
2021/12/24 06:55:46;;;;;;;67.37;46.83;;;;;;;3.24;77.66;98339.69;5045249;28;20277;-80
2021/12/24 06:58:17;;;;;;;64.50;48.00;;;;;;;3.25;77.92;98338.69;5045478;28;20222;-81
2021/12/24 07:00:47;;;;;;;33.47;27.40;;;;;;;3.29;78.63;98341.72;5041339;28;20222;-80
2021/12/24 07:03:17;;;;;;;26.77;21.47;;;;;;;3.37;79.34;98336.22;5028302;28;20542;-80
2021/12/24 07:05:44;;;;;;;26.43;22.10;;;;;;;3.37;79.27;98344.97;5044773;28;20263;-81
2021/12/24 07:08:11;;;;;;;28.33;21.93;;;;;;;3.61;79.45;98354.13;5044684;28;20225;-81
2021/12/24 07:10:39;;;;;;;24.40;21.13;;;;;;;3.67;79.16;98345.38;5043160;28;20218;-81
2021/12/24 07:13:07;;;;;;;25.30;21.53;;;;;;;3.72;78.25;98358.00;5037993;28;20526;-80
2021/12/24 07:15:39;;;;;;;24.30;20.27;;;;;;;3.69;78.82;98348.59;5043477;28;20237;-80
2021/12/24 07:18:06;;;;;;;23.60;20.70;;;;;;;3.71;78.75;98343.94;5045351;28;20719;-81
2021/12/24 07:20:34;;;;;;;25.60;20.57;;;;;;;3.78;77.93;98343.94;5029890;28;20225;-81
2021/12/24 07:23:01;;;;;;;17.87;15.23;;;;;;;4.09;79.06;98337.91;5049484;28;20245;-80
2021/12/24 07:25:35;;;;;;;21.77;17.80;;;;;;;4.27;78.94;98349.47;5050596;28;20190;-80
2021/12/24 07:28:03;;;;;;;22.47;18.97;;;;;;;4.40;78.07;98341.44;5055842;23;20231;-81
2021/12/24 07:30:34;;;;;;;24.80;20.17;;;;;;;4.42;78.38;98339.41;5073462;28;20362;-80
2021/12/24 07:33:01;;;;;;;19.90;16.60;;;;;;;4.66;78.06;98321.13;5091756;28;20291;-80
2021/12/24 07:35:47;;;;;;;18.93;16.23;;;;;;;4.89;78.32;98321.38;5048984;28;20260;-81
2021/12/24 07:38:15;;;;;;;13.50;12.03;;;;;;;5.40;79.02;98331.00;5049069;28;20236;-80
2021/12/24 07:41:01;;;;;;;13.87;11.80;;;;;;;5.68;78.67;98332.16;5051661;28;20242;-80
2021/12/24 07:43:31;;;;;;;11.80;10.17;;;;;;;5.98;78.55;98321.63;5052282;28;20238;-80
2021/12/24 07:46:01;;;;;;;11.13;8.77;;;;;;;6.41;76.98;98318.06;5081224;22;20284;-80
2021/12/24 07:48:48;;;;;;;6.93;6.23;;;;;;;6.95;76.78;98319.78;5097749;28;20223;-80
2021/12/24 07:54:07;;;;;;;8.03;6.20;;;;;;;7.66;73.50;98316.94;5098249;28;20239;-80
2021/12/24 07:56:35;;;;;;;8.80;7.67;;;;;;;7.90;71.61;98315.88;5136409;22;20242;-81
2021/12/24 07:59:03;;;;;;;10.50;8.87;;;;;;;8.02;69.94;98299.06;5112870;28;20172;-81
2021/12/24 08:01:30;;;;;;;7.20;6.50;;;;;;;8.32;69.83;98297.00;5129022;28;20192;-81
2021/12/24 08:04:01;;;;;;;4.77;4.27;;;;;;;8.64;70.59;98297.34;5129133;28;20227;-81
2021/12/24 08:06:28;;;;;;;1.93;1.67;;;;;;;9.06;70.47;98295.16;5112000;28;20223;-80
2021/12/24 08:08:58;;;;;;;1.10;1.00;;;;;;;9.66;69.13;98279.25;5125623;23;20226;-79
2021/12/24 08:11:59;;;;;;;1.00;0.90;;;;;;;10.52;66.54;98286.53;5124747;23;20230;-79
2021/12/24 08:14:47;;;;;;;1.27;0.83;;;;;;;10.83;65.02;98265.38;5128947;22;20231;-78
2021/12/24 08:20:34;;;;;;;1.00;0.90;;;;;;;11.37;63.30;98269.59;5076113;28;20217;-78
2021/12/24 08:23:38;;;;;;;1.77;0.90;;;;;;;11.66;62.03;98267.38;5523524;22;20217;-79
2021/12/24 08:26:07;;;;;;;1.00;0.97;;;;;;;11.76;62.26;98274.69;5109967;23;20259;-78
2021/12/24 08:28:35;;;;;;;1.90;1.20;;;;;;;11.70;62.17;98268.47;5067091;28;20228;-79
2021/12/24 08:31:09;;;;;;;1.93;1.10;;;;;;;11.87;61.72;98271.81;5068146;28;20267;-79
2021/12/24 08:33:51;;;;;;;2.03;1.20;;;;;;;11.87;61.71;98266.44;5084126;28;20220;-79
2021/12/24 08:36:18;;;;;;;1.87;1.10;;;;;;;11.96;61.43;98263.25;5093702;28;20567;-79
2021/12/24 08:38:44;;;;;;;1.53;1.10;;;;;;;12.11;60.10;98255.28;5094910;28;20260;-78
2021/12/24 08:41:13;;;;;;;1.37;1.00;;;;;;;12.24;60.26;98273.59;5101421;28;20232;-78
2021/12/24 08:43:40;;;;;;;2.23;1.10;;;;;;;12.17;60.06;98263.09;5088706;28;20235;-78
2021/12/24 08:46:07;;;;;;;1.20;1.00;;;;;;;12.29;58.78;98252.94;5088875;28;20196;-78
2021/12/24 08:48:34;;;;;;;3.67;1.17;;;;;;;12.38;59.31;98265.84;5094148;28;20250;-78
2021/12/24 08:51:01;;;;;;;2.30;1.20;;;;;;;12.29;59.20;98269.06;5099140;28;20519;-78
2021/12/24 08:53:28;;;;;;;1.77;1.10;;;;;;;12.24;59.13;98268.22;5084644;28;20248;-78
2021/12/24 08:55:55;;;;;;;2.03;1.10;;;;;;;12.53;57.90;98279.31;5096659;28;20555;-78
2021/12/24 08:58:25;;;;;;;2.13;1.10;;;;;;;12.63;57.24;98261.38;5090207;28;20227;-78
2021/12/24 09:00:52;;;;;;;2.13;1.30;;;;;;;12.66;57.30;98263.50;5080255;28;20223;-78
2021/12/24 09:03:21;;;;;;;1.40;1.00;;;;;;;12.71;56.98;98286.91;5128089;23;20234;-77
2021/12/24 09:05:49;;;;;;;1.30;0.90;;;;;;;12.70;56.59;98258.41;5116940;28;20183;-78
2021/12/24 09:08:18;;;;;;;1.87;1.13;;;;;;;12.58;57.09;98269.41;5127917;28;20223;-78
2021/12/24 09:10:48;;;;;;;1.50;1.00;;;;;;;12.63;57.13;98272.13;5094349;28;20215;-78
2021/12/24 09:13:16;;;;;;;1.07;1.00;;;;;;;12.64;57.29;98276.41;5109884;28;20186;-78
2021/12/24 09:15:47;;;;;;;1.70;1.10;;;;;;;12.64;56.88;98268.34;5128462;28;20227;-78
2021/12/24 09:18:21;;;;;;;1.43;0.97;;;;;;;12.79;56.59;98278.31;5135592;22;20235;-77
2021/12/24 09:20:49;;;;;;;2.20;1.20;;;;;;;12.77;56.87;98275.09;5109622;28;20218;-77
2021/12/24 09:23:24;;;;;;;1.53;1.00;;;;;;;12.72;56.85;98275.88;5145010;22;20231;-78
2021/12/24 09:26:13;;;;;;;2.80;1.27;;;;;;;12.71;57.19;98266.22;5107488;28;20233;-78
2021/12/24 09:28:40;;;;;;;1.40;1.20;;;;;;;12.82;56.31;98269.72;5100701;28;20220;-78
2021/12/24 09:31:07;;;;;;;1.40;1.00;;;;;;;12.91;56.46;98275.38;5066139;28;20228;-78
2021/12/24 09:33:36;;;;;;;2.83;1.10;;;;;;;12.91;56.40;98273.50;5076629;23;20244;-79
2021/12/24 09:36:09;;;;;;;1.17;0.97;;;;;;;12.88;56.44;98263.25;5133065;22;20229;-78
2021/12/24 09:38:36;;;;;;;1.77;1.10;;;;;;;12.91;56.57;98270.81;5108914;28;20219;-78
2021/12/24 09:41:06;;;;;;;1.63;1.13;;;;;;;12.95;56.51;98258.44;5090515;28;20251;-78
2021/12/24 09:43:35;;;;;;;1.17;0.93;;;;;;;12.92;56.56;98245.56;5122677;28;20226;-78
2021/12/24 09:46:02;;;;;;;2.03;1.10;;;;;;;12.95;56.42;98249.56;5086561;28;20276;-77
2021/12/24 09:48:29;;;;;;;1.20;1.10;;;;;;;13.00;56.73;98254.94;5081243;28;20302;-78
2021/12/24 09:50:58;;;;;;;1.50;1.03;;;;;;;12.96;56.64;98270.81;5084231;28;20228;-78
2021/12/24 09:53:25;;;;;;;1.50;1.00;;;;;;;13.01;56.52;98275.41;5066624;28;20235;-77
2021/12/24 09:55:53;;;;;;;1.33;1.20;;;;;;;12.97;57.01;98264.34;5102059;28;20631;-79
2021/12/24 09:58:20;;;;;;;1.60;1.07;;;;;;;12.79;57.57;98281.00;5077982;27;20265;-79
2021/12/24 10:00:47;;;;;;;1.67;1.07;;;;;;;12.90;57.39;98292.56;5106973;28;20299;-80
2021/12/24 10:03:48;;;;;;;1.60;1.20;;;;;;;12.83;57.68;98284.75;5113562;22;20300;-77
2021/12/24 10:06:16;;;;;;;1.60;1.10;;;;;;;12.86;57.33;98276.19;5104725;28;20219;-78
2021/12/24 10:08:43;;;;;;;1.30;1.07;;;;;;;12.84;57.52;98264.06;5120532;27;20273;-78
2021/12/24 10:11:15;;;;;;;1.57;1.07;;;;;;;12.76;57.83;98278.84;5094043;23;20207;31
2021/12/24 10:13:46;;;;;;;0.93;0.83;;;;;;;12.79;57.95;98270.25;5027049;28;20234;-77
2021/12/24 10:16:22;;;;;;;2.43;1.30;;;;;;;12.93;57.31;98262.47;5042446;28;20297;-80
2021/12/24 10:18:56;;;;;;;3.03;1.20;;;;;;;12.76;58.32;98260.84;5027276;28;20236;-79
2021/12/24 10:21:32;;;;;;;1.57;1.17;;;;;;;12.76;58.46;98262.72;5041055;28;20684;-80
2021/12/24 10:24:14;;;;;;;1.30;1.10;;;;;;;12.78;58.30;98257.91;5031422;28;20241;-80
2021/12/24 10:26:53;;;;;;;1.30;1.10;;;;;;;12.68;58.55;98256.00;5041145;28;20499;-77
2021/12/24 10:29:32;;;;;;;3.97;1.10;;;;;;;12.63;58.67;98263.25;5043814;28;20232;-78
2021/12/24 10:32:08;;;;;;;2.80;1.23;;;;;;;12.63;58.62;98271.31;5049518;23;20268;-79
2021/12/24 10:34:39;;;;;;;2.30;1.23;;;;;;;12.71;58.85;98266.22;5057765;28;20225;-77
2021/12/24 10:37:12;;;;;;;1.00;0.90;;;;;;;12.63;58.94;98269.41;5083709;28;20227;-80
2021/12/24 10:40:08;;;;;;;2.67;1.50;;;;;;;12.61;59.54;98268.06;5082413;28;20250;-77
2021/12/24 10:42:38;;;;;;;1.30;1.20;;;;;;;12.49;59.75;98246.00;5080692;28;20248;-79
2021/12/24 10:45:22;;;;;;;1.60;1.00;;;;;;;12.55;59.93;98256.47;5084071;28;20225;-79
2021/12/24 10:47:56;;;;;;;1.00;0.90;;;;;;;12.36;59.99;98245.44;5064224;28;20233;-77
2021/12/24 10:50:37;;;;;;;1.80;0.90;;;;;;;12.36;60.43;98250.03;5079803;28;20285;-80
2021/12/24 10:55:59;;;;;;;1.83;1.33;;;;;;;12.36;60.37;98256.16;5081335;28;20232;-79
2021/12/24 10:58:28;;;;;;;1.00;0.90;;;;;;;12.33;60.43;98266.63;5083388;28;20233;-78
2021/12/24 11:01:05;;;;;;;1.90;1.20;;;;;;;12.34;60.79;98273.63;5051124;28;20291;-77
2021/12/24 11:03:34;;;;;;;1.80;1.53;;;;;;;12.34;60.76;98268.25;5108709;22;20244;-79
2021/12/24 11:06:22;;;;;;;1.03;0.73;;;;;;;12.42;60.02;98264.25;5152814;22;20587;-78
2021/12/24 11:08:57;;;;;;;1.00;0.90;;;;;;;12.50;60.29;98261.88;5127998;28;20175;-78
2021/12/24 11:11:27;;;;;;;1.07;1.00;;;;;;;12.64;59.21;98280.97;5113685;22;20223;-79
2021/12/24 11:13:58;;;;;;;1.63;0.80;;;;;;;12.69;59.14;98264.88;5069969;28;20229;-79
2021/12/24 11:16:45;;;;;;;0.80;0.70;;;;;;;12.67;59.27;98273.19;5101380;28;20193;-78
2021/12/24 11:19:27;;;;;;;1.33;0.80;;;;;;;12.76;58.88;98279.66;5076362;28;20312;-78
2021/12/24 11:22:09;;;;;;;1.30;0.90;;;;;;;12.70;58.94;98269.16;5083137;28;20240;-78
2021/12/24 11:25:06;;;;;;;1.27;1.10;;;;;;;12.70;58.89;98269.97;5081767;28;20228;-78
2021/12/24 11:27:36;;;;;;;1.53;0.90;;;;;;;12.80;58.59;98263.81;5084837;28;20243;-79
2021/12/24 11:30:03;;;;;;;0.80;0.80;;;;;;;12.72;58.62;98265.13;5080765;28;20240;-78
2021/12/24 11:32:31;;;;;;;1.93;0.70;;;;;;;12.74;58.70;98262.16;5080287;28;20224;-78
2021/12/24 11:35:00;;;;;;;1.67;1.00;;;;;;;12.67;59.00;98256.25;5080542;28;20237;-79
2021/12/24 11:37:29;;;;;;;0.93;0.80;;;;;;;12.68;59.00;98250.63;5094613;28;20232;-79
2021/12/24 11:40:00;;;;;;;1.80;0.90;;;;;;;12.69;58.89;98267.56;5081139;28;20229;-79
2021/12/24 11:42:38;;;;;;;1.10;1.00;;;;;;;12.51;59.83;98257.28;5079529;28;20225;-78
2021/12/24 11:45:13;;;;;;;1.37;1.27;;;;;;;12.53;59.80;98241.72;5079711;28;20235;-79
2021/12/24 11:47:46;;;;;;;0.73;0.70;;;;;;;12.51;59.55;98236.59;5086459;28;20232;-78
2021/12/24 11:50:30;;;;;;;1.07;1.00;;;;;;;12.43;59.86;98261.31;5100293;22;20244;-78
2021/12/24 11:53:15;;;;;;;1.90;0.90;;;;;;;12.58;59.85;98250.59;5103662;28;20220;-79
2021/12/24 11:55:48;;;;;;;1.07;0.93;;;;;;;12.62;59.66;98248.19;5103221;28;20216;-78
2021/12/24 11:58:25;;;;;;;2.93;2.23;;;;;;;12.61;59.97;98252.75;5118576;28;20240;-79
2021/12/24 12:01:03;;;;;;;0.90;0.90;;;;;;;12.61;59.58;98251.94;5180296;22;20287;-78
2021/12/24 12:03:51;;;;;;;1.30;1.20;;;;;;;12.56;60.12;98246.56;5069977;22;20228;-78
2021/12/24 12:06:20;;;;;;;1.57;1.10;;;;;;;12.52;60.45;98254.34;5103184;28;20240;-79
2021/12/24 12:09:06;;;;;;;1.57;1.10;;;;;;;12.54;59.68;98236.09;5100305;28;20230;-79
2021/12/24 12:11:35;;;;;;;1.47;0.90;;;;;;;12.51;59.61;98225.84;5100026;28;20219;-78
2021/12/24 12:14:21;;;;;;;1.13;0.90;;;;;;;12.51;59.74;98228.53;5083835;28;20224;-78
2021/12/24 12:17:01;;;;;;;1.60;1.50;;;;;;;12.54;59.80;98235.28;5087404;28;20223;-78
2021/12/24 12:19:57;;;;;;;2.27;1.90;;;;;;;12.65;59.21;98229.66;5104495;28;20228;-78
2021/12/24 12:25:32;;;;;;;2.73;1.43;;;;;;;12.59;59.39;98229.91;5107021;28;20254;-79
2021/12/24 12:28:05;;;;;;;2.33;2.07;;;;;;;12.51;59.79;98241.97;5090076;22;20273;-78
2021/12/24 12:30:50;;;;;;;1.33;1.20;;;;;;;12.55;59.71;98231.53;5057706;28;20273;-78
2021/12/24 12:33:23;;;;;;;1.27;1.10;;;;;;;12.59;59.94;98228.03;5027298;23;20253;-78
2021/12/24 12:35:54;;;;;;;1.63;0.90;;;;;;;12.66;59.81;98235.81;5011262;28;20231;-79
2021/12/24 12:38:39;;;;;;;0.60;0.60;;;;;;;12.58;59.88;98229.09;5030639;28;20222;-79
2021/12/24 12:41:37;;;;;;;1.03;0.87;;;;;;;12.60;60.11;98226.94;5057751;23;20229;-78
2021/12/24 12:44:37;;;;;;;1.50;0.90;;;;;;;12.70;59.36;98242.28;5057615;28;20714;-79
2021/12/24 12:47:36;;;;;;;1.00;0.90;;;;;;;12.64;59.86;98254.94;5065805;23;20259;-78
2021/12/24 12:50:24;;;;;;;1.00;0.90;;;;;;;12.58;59.87;98239.03;5091009;22;20288;31
2021/12/24 12:53:28;;;;;;;0.90;0.90;;;;;;;12.55;59.74;98248.44;5029724;28;20239;-79
2021/12/24 12:56:18;;;;;;;1.37;1.00;;;;;;;12.57;59.78;98240.13;5026625;23;20293;-78
2021/12/24 12:58:55;;;;;;;4.00;1.97;;;;;;;12.55;59.65;98232.31;5042177;28;20315;-79
2021/12/24 13:01:23;;;;;;;1.90;1.30;;;;;;;12.49;59.78;98229.91;5044824;28;20297;-78
2021/12/24 13:04:04;;;;;;;1.80;1.47;;;;;;;12.58;59.98;98233.69;5026690;28;20234;-79
2021/12/24 13:06:39;;;;;;;2.63;1.33;;;;;;;12.42;60.45;98232.00;5041348;28;20217;-79
2021/12/24 13:09:08;;;;;;;1.60;1.20;;;;;;;12.43;60.06;98222.88;5044126;28;20321;-79
2021/12/24 13:11:44;;;;;;;1.57;1.10;;;;;;;12.40;60.23;98220.75;5044462;28;20653;-79
2021/12/24 13:14:12;;;;;;;1.10;1.00;;;;;;;12.26;60.52;98213.19;5042278;28;20285;-79
2021/12/24 13:17:06;;;;;;;1.17;1.07;;;;;;;12.30;60.34;98235.75;5041693;28;20252;-79
2021/12/24 13:19:59;;;;;;;1.60;1.10;;;;;;;12.27;60.59;98228.22;5045806;28;20233;-78
2021/12/24 13:22:32;;;;;;;1.27;1.00;;;;;;;12.15;61.32;98216.91;5043966;28;20245;-79
2021/12/24 13:25:11;;;;;;;2.10;1.03;;;;;;;12.22;60.83;98227.41;5042842;28;20226;-79
2021/12/24 13:27:41;;;;;;;1.30;1.00;;;;;;;12.20;60.64;98222.28;5042260;28;20225;-78
2021/12/24 13:30:13;;;;;;;1.33;1.20;;;;;;;12.20;60.90;98224.97;5042204;28;20233;-78
2021/12/24 13:33:07;;;;;;;1.83;1.10;;;;;;;12.12;61.05;98222.00;5061477;22;20252;-78
2021/12/24 13:35:43;;;;;;;1.33;1.10;;;;;;;12.10;61.32;98218.75;5061311;28;20197;-78
2021/12/24 13:38:25;;;;;;;1.97;0.90;;;;;;;12.12;61.04;98224.69;5027039;28;20228;-78
2021/12/24 13:40:56;;;;;;;0.80;0.80;;;;;;;12.07;61.03;98227.34;5063764;28;20240;-78
2021/12/24 13:43:26;;;;;;;1.73;0.93;;;;;;;12.11;61.20;98226.56;5057794;28;20217;-78
2021/12/24 13:45:54;;;;;;;0.90;0.90;;;;;;;11.94;61.09;98204.50;5060911;28;20252;-78
2021/12/24 13:48:39;;;;;;;0.87;0.80;;;;;;;11.88;62.13;98219.75;5062706;28;20225;-78
2021/12/24 13:56:48;;;;;;;1.73;1.30;;;;;;;11.79;62.37;98218.66;5084194;28;20651;-78
2021/12/24 13:59:21;;;;;;;2.10;1.37;;;;;;;11.68;62.52;98224.19;5068777;28;20283;-78